sensor_id;sensor_type;location;lat;lon;timestamp;temperature;humidity
33739;DHT22;20063;51.730;11.110;2022-11-15T00:00:53;9.20;99.90
33739;DHT22;20063;51.730;11.110;2022-11-15T00:03:25;9.30;99.90
33739;DHT22;20063;51.730;11.110;2022-11-15T00:05:51;9.30;99.90
33739;DHT22;20063;51.730;11.110;2022-11-15T00:08:17;9.50;99.90
33739;DHT22;20063;51.730;11.110;2022-11-15T00:10:43;9.60;99.90
33739;DHT22;20063;51.730;11.110;2022-11-15T00:13:12;9.60;99.90
33739;DHT22;20063;51.730;11.110;2022-11-15T00:15:39;9.80;99.90
33739;DHT22;20063;51.730;11.110;2022-11-15T00:18:09;9.90;99.90
33739;DHT22;20063;51.730;11.110;2022-11-15T00:20:37;9.90;99.90
33739;DHT22;20063;51.730;11.110;2022-11-15T00:23:05;10.00;99.90
33739;DHT22;20063;51.730;11.110;2022-11-15T00:25:32;10.00;99.90
33739;DHT22;20063;51.730;11.110;2022-11-15T00:27:58;10.10;99.90
33739;DHT22;20063;51.730;11.110;2022-11-15T00:30:27;10.10;99.90
33739;DHT22;20063;51.730;11.110;2022-11-15T00:32:52;10.30;99.90
33739;DHT22;20063;51.730;11.110;2022-11-15T00:35:19;10.30;99.90
33739;DHT22;20063;51.730;11.110;2022-11-15T00:37:45;10.40;99.90
33739;DHT22;20063;51.730;11.110;2022-11-15T00:40:12;10.40;99.90
33739;DHT22;20063;51.730;11.110;2022-11-15T00:42:38;10.50;99.90
33739;DHT22;20063;51.730;11.110;2022-11-15T00:45:04;10.50;99.90
33739;DHT22;20063;51.730;11.110;2022-11-15T00:47:30;10.50;99.90
33739;DHT22;20063;51.730;11.110;2022-11-15T00:49:56;10.50;99.90
33739;DHT22;20063;51.730;11.110;2022-11-15T00:52:21;10.50;99.90
33739;DHT22;20063;51.730;11.110;2022-11-15T00:54:47;10.50;99.90
33739;DHT22;20063;51.730;11.110;2022-11-15T00:57:12;10.50;99.90
33739;DHT22;20063;51.730;11.110;2022-11-15T00:59:38;10.50;99.90
33739;DHT22;20063;51.730;11.110;2022-11-15T01:02:03;10.50;99.90
33739;DHT22;20063;51.730;11.110;2022-11-15T01:04:29;10.50;99.90
33739;DHT22;20063;51.730;11.110;2022-11-15T01:06:55;10.40;99.90
33739;DHT22;20063;51.730;11.110;2022-11-15T01:09:20;10.40;99.90
33739;DHT22;20063;51.730;11.110;2022-11-15T01:11:46;10.50;99.90
33739;DHT22;20063;51.730;11.110;2022-11-15T01:14:11;10.40;99.90
33739;DHT22;20063;51.730;11.110;2022-11-15T01:16:37;10.50;99.90
33739;DHT22;20063;51.730;11.110;2022-11-15T01:19:03;10.50;99.90
33739;DHT22;20063;51.730;11.110;2022-11-15T01:21:29;10.60;99.90
33739;DHT22;20063;51.730;11.110;2022-11-15T01:23:55;10.50;99.90
33739;DHT22;20063;51.730;11.110;2022-11-15T01:26:22;10.70;99.90
33739;DHT22;20063;51.730;11.110;2022-11-15T01:28:48;10.70;99.90
33739;DHT22;20063;51.730;11.110;2022-11-15T01:31:19;10.70;99.90
33739;DHT22;20063;51.730;11.110;2022-11-15T01:33:46;10.70;99.90
33739;DHT22;20063;51.730;11.110;2022-11-15T01:36:21;10.70;99.90
33739;DHT22;20063;51.730;11.110;2022-11-15T01:38:52;10.80;99.90
33739;DHT22;20063;51.730;11.110;2022-11-15T01:41:20;10.80;99.90
33739;DHT22;20063;51.730;11.110;2022-11-15T01:43:51;10.90;99.90
33739;DHT22;20063;51.730;11.110;2022-11-15T01:48:53;10.90;99.90
33739;DHT22;20063;51.730;11.110;2022-11-15T01:51:22;10.90;99.90
33739;DHT22;20063;51.730;11.110;2022-11-15T01:53:53;11.00;99.90
33739;DHT22;20063;51.730;11.110;2022-11-15T01:56:23;10.90;99.90
33739;DHT22;20063;51.730;11.110;2022-11-15T01:58:51;11.00;99.90
33739;DHT22;20063;51.730;11.110;2022-11-15T02:01:19;11.00;99.90
33739;DHT22;20063;51.730;11.110;2022-11-15T02:04:59;10.90;99.90
33739;DHT22;20063;51.730;11.110;2022-11-15T02:07:08;10.90;99.90
33739;DHT22;20063;51.730;11.110;2022-11-15T02:09:36;10.90;99.90
33739;DHT22;20063;51.730;11.110;2022-11-15T02:12:02;10.90;99.90
33739;DHT22;20063;51.730;11.110;2022-11-15T02:14:30;10.90;99.90
33739;DHT22;20063;51.730;11.110;2022-11-15T02:17:09;10.80;99.90
33739;DHT22;20063;51.730;11.110;2022-11-15T02:33:45;10.70;99.90
33739;DHT22;20063;51.730;11.110;2022-11-15T02:39:34;10.70;99.90
33739;DHT22;20063;51.730;11.110;2022-11-15T02:42:07;10.70;99.90
33739;DHT22;20063;51.730;11.110;2022-11-15T02:44:56;10.70;99.90
33739;DHT22;20063;51.730;11.110;2022-11-15T02:47:24;10.70;99.90
33739;DHT22;20063;51.730;11.110;2022-11-15T02:49:54;10.70;99.90
33739;DHT22;20063;51.730;11.110;2022-11-15T02:52:24;10.70;99.90
33739;DHT22;20063;51.730;11.110;2022-11-15T02:55:00;10.70;99.90
33739;DHT22;20063;51.730;11.110;2022-11-15T03:00:34;10.70;99.90
33739;DHT22;20063;51.730;11.110;2022-11-15T03:06:19;10.70;99.90
33739;DHT22;20063;51.730;11.110;2022-11-15T03:09:14;10.70;99.90
33739;DHT22;20063;51.730;11.110;2022-11-15T03:11:48;10.70;99.90
33739;DHT22;20063;51.730;11.110;2022-11-15T03:14:24;10.70;99.90
33739;DHT22;20063;51.730;11.110;2022-11-15T03:22:03;10.80;99.90
33739;DHT22;20063;51.730;11.110;2022-11-15T03:24:30;10.80;99.90
33739;DHT22;20063;51.730;11.110;2022-11-15T03:26:59;10.90;99.90
33739;DHT22;20063;51.730;11.110;2022-11-15T03:29:47;10.90;99.90
33739;DHT22;20063;51.730;11.110;2022-11-15T03:32:22;10.80;99.90
33739;DHT22;20063;51.730;11.110;2022-11-15T03:35:09;10.80;99.90
33739;DHT22;20063;51.730;11.110;2022-11-15T03:40:15;10.80;99.90
33739;DHT22;20063;51.730;11.110;2022-11-15T03:42:50;10.90;99.90
33739;DHT22;20063;51.730;11.110;2022-11-15T03:45:43;10.80;99.90
33739;DHT22;20063;51.730;11.110;2022-11-15T03:48:40;10.70;99.90
33739;DHT22;20063;51.730;11.110;2022-11-15T03:51:06;10.70;99.90
33739;DHT22;20063;51.730;11.110;2022-11-15T03:53:32;10.60;99.90
33739;DHT22;20063;51.730;11.110;2022-11-15T03:55:58;10.60;99.90
33739;DHT22;20063;51.730;11.110;2022-11-15T03:58:24;10.60;99.90
33739;DHT22;20063;51.730;11.110;2022-11-15T04:00:49;10.60;99.90
33739;DHT22;20063;51.730;11.110;2022-11-15T04:03:18;10.60;99.90
33739;DHT22;20063;51.730;11.110;2022-11-15T04:05:44;10.50;99.90
33739;DHT22;20063;51.730;11.110;2022-11-15T04:08:09;10.50;99.90
33739;DHT22;20063;51.730;11.110;2022-11-15T04:10:35;10.50;99.90
33739;DHT22;20063;51.730;11.110;2022-11-15T04:13:02;10.40;99.90
33739;DHT22;20063;51.730;11.110;2022-11-15T04:15:28;10.50;99.90
33739;DHT22;20063;51.730;11.110;2022-11-15T04:17:57;10.50;99.90
33739;DHT22;20063;51.730;11.110;2022-11-15T04:20:28;10.50;99.90
33739;DHT22;20063;51.730;11.110;2022-11-15T04:23:18;10.50;99.90
33739;DHT22;20063;51.730;11.110;2022-11-15T04:26:10;10.60;99.90
33739;DHT22;20063;51.730;11.110;2022-11-15T04:28:37;10.60;99.90
33739;DHT22;20063;51.730;11.110;2022-11-15T04:31:21;10.50;99.90
33739;DHT22;20063;51.730;11.110;2022-11-15T04:33:47;10.50;99.90
33739;DHT22;20063;51.730;11.110;2022-11-15T04:36:12;10.50;99.90
33739;DHT22;20063;51.730;11.110;2022-11-15T04:38:57;10.50;99.90
33739;DHT22;20063;51.730;11.110;2022-11-15T04:41:22;10.40;99.90
33739;DHT22;20063;51.730;11.110;2022-11-15T04:43:48;10.40;99.90
33739;DHT22;20063;51.730;11.110;2022-11-15T04:46:13;10.40;99.90
33739;DHT22;20063;51.730;11.110;2022-11-15T04:48:39;10.40;99.90
33739;DHT22;20063;51.730;11.110;2022-11-15T04:51:05;10.30;99.90
33739;DHT22;20063;51.730;11.110;2022-11-15T04:53:30;10.30;99.90
33739;DHT22;20063;51.730;11.110;2022-11-15T04:55:56;10.30;99.90
33739;DHT22;20063;51.730;11.110;2022-11-15T04:58:21;10.30;99.90
33739;DHT22;20063;51.730;11.110;2022-11-15T05:00:47;10.30;99.90
33739;DHT22;20063;51.730;11.110;2022-11-15T05:03:13;10.30;99.90
33739;DHT22;20063;51.730;11.110;2022-11-15T05:05:57;10.30;99.90
33739;DHT22;20063;51.730;11.110;2022-11-15T05:08:27;10.20;99.90
33739;DHT22;20063;51.730;11.110;2022-11-15T05:10:52;10.20;99.90
33739;DHT22;20063;51.730;11.110;2022-11-15T05:13:18;10.20;99.90
33739;DHT22;20063;51.730;11.110;2022-11-15T05:15:43;10.30;99.90
33739;DHT22;20063;51.730;11.110;2022-11-15T05:18:10;10.20;99.90
33739;DHT22;20063;51.730;11.110;2022-11-15T05:20:35;10.20;99.90
33739;DHT22;20063;51.730;11.110;2022-11-15T05:23:01;10.30;99.90
33739;DHT22;20063;51.730;11.110;2022-11-15T05:25:27;10.30;99.90
33739;DHT22;20063;51.730;11.110;2022-11-15T05:27:52;10.30;99.90
33739;DHT22;20063;51.730;11.110;2022-11-15T05:30:18;10.30;99.90
33739;DHT22;20063;51.730;11.110;2022-11-15T05:32:44;10.30;99.90
33739;DHT22;20063;51.730;11.110;2022-11-15T05:35:29;10.20;99.90
33739;DHT22;20063;51.730;11.110;2022-11-15T05:37:56;10.30;99.90
33739;DHT22;20063;51.730;11.110;2022-11-15T05:40:21;10.20;99.90
33739;DHT22;20063;51.730;11.110;2022-11-15T05:42:47;10.20;99.90
33739;DHT22;20063;51.730;11.110;2022-11-15T05:45:15;10.20;99.90
33739;DHT22;20063;51.730;11.110;2022-11-15T05:47:41;10.20;99.90
33739;DHT22;20063;51.730;11.110;2022-11-15T05:50:07;10.20;99.90
33739;DHT22;20063;51.730;11.110;2022-11-15T05:52:35;10.20;99.90
33739;DHT22;20063;51.730;11.110;2022-11-15T05:55:02;10.20;99.90
33739;DHT22;20063;51.730;11.110;2022-11-15T05:57:29;10.20;99.90
33739;DHT22;20063;51.730;11.110;2022-11-15T05:59:55;10.10;99.90
33739;DHT22;20063;51.730;11.110;2022-11-15T06:02:21;10.30;99.90
33739;DHT22;20063;51.730;11.110;2022-11-15T06:04:47;10.20;99.90
33739;DHT22;20063;51.730;11.110;2022-11-15T06:07:12;10.30;99.90
33739;DHT22;20063;51.730;11.110;2022-11-15T06:09:38;10.30;99.90
33739;DHT22;20063;51.730;11.110;2022-11-15T06:12:03;10.30;99.90
33739;DHT22;20063;51.730;11.110;2022-11-15T06:14:29;10.30;99.90
33739;DHT22;20063;51.730;11.110;2022-11-15T06:16:55;10.30;99.90
33739;DHT22;20063;51.730;11.110;2022-11-15T06:19:20;10.20;99.90
33739;DHT22;20063;51.730;11.110;2022-11-15T06:21:46;10.20;99.90
33739;DHT22;20063;51.730;11.110;2022-11-15T06:24:12;10.30;99.90
33739;DHT22;20063;51.730;11.110;2022-11-15T06:26:37;10.20;99.90
33739;DHT22;20063;51.730;11.110;2022-11-15T06:29:04;10.20;99.90
33739;DHT22;20063;51.730;11.110;2022-11-15T06:31:30;10.20;99.90
33739;DHT22;20063;51.730;11.110;2022-11-15T06:33:55;10.10;99.90
33739;DHT22;20063;51.730;11.110;2022-11-15T06:36:21;10.10;99.90
33739;DHT22;20063;51.730;11.110;2022-11-15T06:38:47;10.10;99.90
33739;DHT22;20063;51.730;11.110;2022-11-15T06:41:13;10.20;99.90
33739;DHT22;20063;51.730;11.110;2022-11-15T06:43:40;10.10;99.90
33739;DHT22;20063;51.730;11.110;2022-11-15T06:46:07;10.10;99.90
33739;DHT22;20063;51.730;11.110;2022-11-15T06:48:33;10.20;99.90
33739;DHT22;20063;51.730;11.110;2022-11-15T06:51:00;10.20;99.90
33739;DHT22;20063;51.730;11.110;2022-11-15T06:53:26;10.20;99.90
33739;DHT22;20063;51.730;11.110;2022-11-15T06:55:52;10.20;99.90
33739;DHT22;20063;51.730;11.110;2022-11-15T06:58:20;10.30;99.90
33739;DHT22;20063;51.730;11.110;2022-11-15T07:00:46;10.30;99.90
33739;DHT22;20063;51.730;11.110;2022-11-15T07:03:11;10.30;99.90
33739;DHT22;20063;51.730;11.110;2022-11-15T07:05:37;10.40;99.90
33739;DHT22;20063;51.730;11.110;2022-11-15T07:08:03;10.40;99.90
33739;DHT22;20063;51.730;11.110;2022-11-15T07:10:29;10.50;99.90
33739;DHT22;20063;51.730;11.110;2022-11-15T07:12:58;10.60;99.90
33739;DHT22;20063;51.730;11.110;2022-11-15T07:15:25;10.60;99.90
33739;DHT22;20063;51.730;11.110;2022-11-15T07:17:51;10.70;99.90
33739;DHT22;20063;51.730;11.110;2022-11-15T07:20:17;10.80;99.90
33739;DHT22;20063;51.730;11.110;2022-11-15T07:22:43;10.90;99.90
33739;DHT22;20063;51.730;11.110;2022-11-15T07:25:10;11.00;99.90
33739;DHT22;20063;51.730;11.110;2022-11-15T07:27:36;11.10;99.90
33739;DHT22;20063;51.730;11.110;2022-11-15T07:30:03;11.20;99.90
33739;DHT22;20063;51.730;11.110;2022-11-15T07:32:29;11.30;99.90
33739;DHT22;20063;51.730;11.110;2022-11-15T07:34:55;11.30;99.90
33739;DHT22;20063;51.730;11.110;2022-11-15T07:37:20;11.30;99.90
33739;DHT22;20063;51.730;11.110;2022-11-15T07:39:46;11.30;99.90
33739;DHT22;20063;51.730;11.110;2022-11-15T07:42:11;11.30;99.90
33739;DHT22;20063;51.730;11.110;2022-11-15T07:44:56;11.40;99.90
33739;DHT22;20063;51.730;11.110;2022-11-15T07:47:21;11.40;99.90
33739;DHT22;20063;51.730;11.110;2022-11-15T07:49:47;11.40;99.90
33739;DHT22;20063;51.730;11.110;2022-11-15T07:52:13;11.40;99.90
33739;DHT22;20063;51.730;11.110;2022-11-15T07:54:39;11.40;99.90
33739;DHT22;20063;51.730;11.110;2022-11-15T07:57:05;11.50;99.90
33739;DHT22;20063;51.730;11.110;2022-11-15T07:59:32;11.60;99.90
33739;DHT22;20063;51.730;11.110;2022-11-15T08:01:58;11.70;99.90
33739;DHT22;20063;51.730;11.110;2022-11-15T08:04:23;11.80;99.90
33739;DHT22;20063;51.730;11.110;2022-11-15T08:06:49;11.90;99.90
33739;DHT22;20063;51.730;11.110;2022-11-15T08:09:14;12.00;99.90
33739;DHT22;20063;51.730;11.110;2022-11-15T08:11:40;12.00;99.90
33739;DHT22;20063;51.730;11.110;2022-11-15T08:14:06;12.10;99.90
33739;DHT22;20063;51.730;11.110;2022-11-15T08:16:32;12.10;99.90
33739;DHT22;20063;51.730;11.110;2022-11-15T08:18:57;12.20;99.90
33739;DHT22;20063;51.730;11.110;2022-11-15T08:21:23;12.20;99.90
33739;DHT22;20063;51.730;11.110;2022-11-15T08:23:49;12.20;99.90
33739;DHT22;20063;51.730;11.110;2022-11-15T08:26:15;12.30;99.90
33739;DHT22;20063;51.730;11.110;2022-11-15T08:28:41;12.30;99.90
33739;DHT22;20063;51.730;11.110;2022-11-15T08:31:06;12.20;99.90
33739;DHT22;20063;51.730;11.110;2022-11-15T08:33:32;12.30;99.90
33739;DHT22;20063;51.730;11.110;2022-11-15T08:35:59;12.20;99.90
33739;DHT22;20063;51.730;11.110;2022-11-15T08:38:26;12.20;99.90
33739;DHT22;20063;51.730;11.110;2022-11-15T08:41:03;12.20;99.90
33739;DHT22;20063;51.730;11.110;2022-11-15T08:43:29;12.20;99.90
33739;DHT22;20063;51.730;11.110;2022-11-15T08:45:58;12.10;99.90
33739;DHT22;20063;51.730;11.110;2022-11-15T08:48:25;12.10;99.90
33739;DHT22;20063;51.730;11.110;2022-11-15T08:50:54;12.10;99.90
33739;DHT22;20063;51.730;11.110;2022-11-15T08:53:20;12.10;99.90
33739;DHT22;20063;51.730;11.110;2022-11-15T08:55:46;12.10;99.90
33739;DHT22;20063;51.730;11.110;2022-11-15T08:58:12;12.10;99.90
33739;DHT22;20063;51.730;11.110;2022-11-15T09:00:37;12.10;99.90
33739;DHT22;20063;51.730;11.110;2022-11-15T09:03:04;12.10;99.90
33739;DHT22;20063;51.730;11.110;2022-11-15T09:05:31;12.10;99.90
33739;DHT22;20063;51.730;11.110;2022-11-15T09:07:56;12.20;99.90
33739;DHT22;20063;51.730;11.110;2022-11-15T09:10:22;12.20;99.90
33739;DHT22;20063;51.730;11.110;2022-11-15T09:12:48;12.20;99.90
33739;DHT22;20063;51.730;11.110;2022-11-15T09:15:14;12.20;99.90
33739;DHT22;20063;51.730;11.110;2022-11-15T09:17:40;12.30;99.90
33739;DHT22;20063;51.730;11.110;2022-11-15T09:20:06;12.20;99.90
33739;DHT22;20063;51.730;11.110;2022-11-15T09:22:32;12.30;99.90
33739;DHT22;20063;51.730;11.110;2022-11-15T09:24:58;12.40;99.90
33739;DHT22;20063;51.730;11.110;2022-11-15T09:27:30;12.60;99.90
33739;DHT22;20063;51.730;11.110;2022-11-15T09:29:56;12.70;99.90
33739;DHT22;20063;51.730;11.110;2022-11-15T09:32:22;12.80;99.90
33739;DHT22;20063;51.730;11.110;2022-11-15T09:34:51;12.90;99.90
33739;DHT22;20063;51.730;11.110;2022-11-15T09:37:17;12.90;99.90
33739;DHT22;20063;51.730;11.110;2022-11-15T09:39:42;12.90;99.90
33739;DHT22;20063;51.730;11.110;2022-11-15T09:49:59;13.00;99.90
33739;DHT22;20063;51.730;11.110;2022-11-15T09:52:26;13.00;99.90
33739;DHT22;20063;51.730;11.110;2022-11-15T09:54:53;13.00;99.90
33739;DHT22;20063;51.730;11.110;2022-11-15T09:57:37;13.00;99.90
33739;DHT22;20063;51.730;11.110;2022-11-15T10:00:28;13.00;99.90
33739;DHT22;20063;51.730;11.110;2022-11-15T10:03:29;13.00;99.90
33739;DHT22;20063;51.730;11.110;2022-11-15T10:05:59;13.00;99.90
33739;DHT22;20063;51.730;11.110;2022-11-15T10:11:17;13.10;99.90
33739;DHT22;20063;51.730;11.110;2022-11-15T10:13:46;13.10;99.90
33739;DHT22;20063;51.730;11.110;2022-11-15T10:24:13;13.30;99.90
33739;DHT22;20063;51.730;11.110;2022-11-15T10:26:46;13.20;99.90
33739;DHT22;20063;51.730;11.110;2022-11-15T10:29:18;13.40;99.90
33739;DHT22;20063;51.730;11.110;2022-11-15T10:31:43;13.50;99.90
33739;DHT22;20063;51.730;11.110;2022-11-15T10:34:18;13.50;99.90
33739;DHT22;20063;51.730;11.110;2022-11-15T10:36:58;13.70;99.90
33739;DHT22;20063;51.730;11.110;2022-11-15T10:39:25;13.90;99.90
33739;DHT22;20063;51.730;11.110;2022-11-15T10:41:51;14.00;99.90
33739;DHT22;20063;51.730;11.110;2022-11-15T10:44:18;14.00;99.90
33739;DHT22;20063;51.730;11.110;2022-11-15T10:49:25;14.00;99.90
33739;DHT22;20063;51.730;11.110;2022-11-15T10:52:14;14.20;99.90
33739;DHT22;20063;51.730;11.110;2022-11-15T10:54:47;14.20;99.90
33739;DHT22;20063;51.730;11.110;2022-11-15T10:57:23;14.30;99.90
33739;DHT22;20063;51.730;11.110;2022-11-15T11:00:00;14.30;99.90
33739;DHT22;20063;51.730;11.110;2022-11-15T11:02:38;14.30;99.90
33739;DHT22;20063;51.730;11.110;2022-11-15T11:05:07;14.30;99.90
33739;DHT22;20063;51.730;11.110;2022-11-15T11:07:59;14.30;99.90
33739;DHT22;20063;51.730;11.110;2022-11-15T11:10:27;14.40;99.90
33739;DHT22;20063;51.730;11.110;2022-11-15T11:12:52;14.40;99.90
33739;DHT22;20063;51.730;11.110;2022-11-15T11:15:18;14.50;99.90
33739;DHT22;20063;51.730;11.110;2022-11-15T11:25:58;14.80;99.90
33739;DHT22;20063;51.730;11.110;2022-11-15T11:28:39;14.80;99.90
33739;DHT22;20063;51.730;11.110;2022-11-15T11:37:30;14.60;99.90
33739;DHT22;20063;51.730;11.110;2022-11-15T11:40:28;14.70;99.90
33739;DHT22;20063;51.730;11.110;2022-11-15T11:46:09;14.70;99.90
33739;DHT22;20063;51.730;11.110;2022-11-15T11:48:53;14.80;99.90
33739;DHT22;20063;51.730;11.110;2022-11-15T11:51:34;14.90;99.90
33739;DHT22;20063;51.730;11.110;2022-11-15T11:54:10;14.90;99.90
33739;DHT22;20063;51.730;11.110;2022-11-15T11:56:39;14.80;99.90
33739;DHT22;20063;51.730;11.110;2022-11-15T11:59:14;14.80;99.90
33739;DHT22;20063;51.730;11.110;2022-11-15T12:01:42;14.70;99.90
33739;DHT22;20063;51.730;11.110;2022-11-15T12:04:13;14.70;99.90
33739;DHT22;20063;51.730;11.110;2022-11-15T12:09:44;14.90;99.90
33739;DHT22;20063;51.730;11.110;2022-11-15T12:17:36;14.80;99.90
33739;DHT22;20063;51.730;11.110;2022-11-15T12:20:29;14.80;99.90
33739;DHT22;20063;51.730;11.110;2022-11-15T12:23:05;14.80;99.90
33739;DHT22;20063;51.730;11.110;2022-11-15T12:25:55;14.80;99.90
33739;DHT22;20063;51.730;11.110;2022-11-15T12:28:47;14.80;99.90
33739;DHT22;20063;51.730;11.110;2022-11-15T12:31:23;14.90;99.90
33739;DHT22;20063;51.730;11.110;2022-11-15T12:33:49;15.00;99.90
33739;DHT22;20063;51.730;11.110;2022-11-15T12:39:07;14.90;99.90
33739;DHT22;20063;51.730;11.110;2022-11-15T12:52:04;14.90;99.90
33739;DHT22;20063;51.730;11.110;2022-11-15T12:59:51;14.90;99.90
33739;DHT22;20063;51.730;11.110;2022-11-15T13:02:36;14.90;99.90
33739;DHT22;20063;51.730;11.110;2022-11-15T13:17:51;15.00;99.90
33739;DHT22;20063;51.730;11.110;2022-11-15T13:30:59;14.70;99.90
33739;DHT22;20063;51.730;11.110;2022-11-15T13:33:35;14.60;99.90
33739;DHT22;20063;51.730;11.110;2022-11-15T13:36:05;14.50;99.90
33739;DHT22;20063;51.730;11.110;2022-11-15T13:38:34;14.40;99.90
33739;DHT22;20063;51.730;11.110;2022-11-15T13:41:16;14.20;99.90
33739;DHT22;20063;51.730;11.110;2022-11-15T13:43:42;14.20;99.90
33739;DHT22;20063;51.730;11.110;2022-11-15T13:48:47;14.00;99.90
33739;DHT22;20063;51.730;11.110;2022-11-15T13:57:05;13.80;99.90
33739;DHT22;20063;51.730;11.110;2022-11-15T14:00:23;13.70;99.90
33739;DHT22;20063;51.730;11.110;2022-11-15T14:02:27;13.60;99.90
33739;DHT22;20063;51.730;11.110;2022-11-15T14:05:03;13.40;99.90
33739;DHT22;20063;51.730;11.110;2022-11-15T14:07:30;13.40;99.90
33739;DHT22;20063;51.730;11.110;2022-11-15T14:09:56;13.40;99.90
33739;DHT22;20063;51.730;11.110;2022-11-15T14:12:33;13.30;99.90
33739;DHT22;20063;51.730;11.110;2022-11-15T14:15:17;13.20;99.90
33739;DHT22;20063;51.730;11.110;2022-11-15T14:17:43;13.20;99.90
33739;DHT22;20063;51.730;11.110;2022-11-15T14:20:29;13.20;99.90
33739;DHT22;20063;51.730;11.110;2022-11-15T14:23:25;13.10;99.90
33739;DHT22;20063;51.730;11.110;2022-11-15T14:25:53;13.10;99.90
33739;DHT22;20063;51.730;11.110;2022-11-15T14:30:48;13.10;99.90
33739;DHT22;20063;51.730;11.110;2022-11-15T14:33:22;13.00;99.90
33739;DHT22;20063;51.730;11.110;2022-11-15T14:35:50;13.00;99.90
33739;DHT22;20063;51.730;11.110;2022-11-15T14:38:16;12.90;99.90
33739;DHT22;20063;51.730;11.110;2022-11-15T14:40:42;12.90;99.90
33739;DHT22;20063;51.730;11.110;2022-11-15T14:43:10;12.80;99.90
33739;DHT22;20063;51.730;11.110;2022-11-15T14:45:36;12.70;99.90
33739;DHT22;20063;51.730;11.110;2022-11-15T14:48:02;12.70;99.90
33739;DHT22;20063;51.730;11.110;2022-11-15T14:50:28;12.60;99.90
33739;DHT22;20063;51.730;11.110;2022-11-15T14:52:54;12.50;99.90
33739;DHT22;20063;51.730;11.110;2022-11-15T14:55:27;12.50;99.90
33739;DHT22;20063;51.730;11.110;2022-11-15T14:57:54;12.40;99.90
33739;DHT22;20063;51.730;11.110;2022-11-15T15:00:21;12.30;99.90
33739;DHT22;20063;51.730;11.110;2022-11-15T15:02:48;12.30;99.90
33739;DHT22;20063;51.730;11.110;2022-11-15T15:07:42;12.20;99.90
33739;DHT22;20063;51.730;11.110;2022-11-15T15:10:08;12.10;99.90
33739;DHT22;20063;51.730;11.110;2022-11-15T15:12:34;12.00;99.90
33739;DHT22;20063;51.730;11.110;2022-11-15T15:14:59;11.90;99.90
33739;DHT22;20063;51.730;11.110;2022-11-15T15:17:25;12.00;99.90
33739;DHT22;20063;51.730;11.110;2022-11-15T15:19:51;12.00;99.90
33739;DHT22;20063;51.730;11.110;2022-11-15T15:22:18;12.00;99.90
33739;DHT22;20063;51.730;11.110;2022-11-15T15:24:45;12.00;99.90
33739;DHT22;20063;51.730;11.110;2022-11-15T15:27:11;12.00;99.90
33739;DHT22;20063;51.730;11.110;2022-11-15T15:29:37;12.10;99.90
33739;DHT22;20063;51.730;11.110;2022-11-15T15:32:03;12.00;99.90
33739;DHT22;20063;51.730;11.110;2022-11-15T15:34:29;12.00;99.90
33739;DHT22;20063;51.730;11.110;2022-11-15T15:39:54;12.10;99.90
33739;DHT22;20063;51.730;11.110;2022-11-15T15:42:21;12.10;99.90
33739;DHT22;20063;51.730;11.110;2022-11-15T15:44:47;12.10;99.90
33739;DHT22;20063;51.730;11.110;2022-11-15T15:47:23;12.10;99.90
33739;DHT22;20063;51.730;11.110;2022-11-15T15:49:51;12.20;99.90
33739;DHT22;20063;51.730;11.110;2022-11-15T15:52:17;12.20;99.90
33739;DHT22;20063;51.730;11.110;2022-11-15T15:54:43;12.20;99.90
33739;DHT22;20063;51.730;11.110;2022-11-15T15:57:12;12.20;99.90
33739;DHT22;20063;51.730;11.110;2022-11-15T15:59:38;12.20;99.90
33739;DHT22;20063;51.730;11.110;2022-11-15T16:02:03;12.20;99.90
33739;DHT22;20063;51.730;11.110;2022-11-15T16:04:29;12.20;99.90
33739;DHT22;20063;51.730;11.110;2022-11-15T16:06:59;12.10;99.90
33739;DHT22;20063;51.730;11.110;2022-11-15T16:09:25;12.10;99.90
33739;DHT22;20063;51.730;11.110;2022-11-15T16:12:12;12.10;99.90
33739;DHT22;20063;51.730;11.110;2022-11-15T16:14:38;12.10;99.90
33739;DHT22;20063;51.730;11.110;2022-11-15T16:17:03;12.10;99.90
33739;DHT22;20063;51.730;11.110;2022-11-15T16:19:29;12.10;99.90
33739;DHT22;20063;51.730;11.110;2022-11-15T16:21:55;12.10;99.90
33739;DHT22;20063;51.730;11.110;2022-11-15T16:24:21;12.10;99.90
33739;DHT22;20063;51.730;11.110;2022-11-15T16:26:47;12.10;99.90
33739;DHT22;20063;51.730;11.110;2022-11-15T16:29:13;12.10;99.90
33739;DHT22;20063;51.730;11.110;2022-11-15T16:31:39;12.10;99.90
33739;DHT22;20063;51.730;11.110;2022-11-15T16:34:04;12.10;99.90
33739;DHT22;20063;51.730;11.110;2022-11-15T16:36:33;12.10;99.90
33739;DHT22;20063;51.730;11.110;2022-11-15T16:39:00;12.00;99.90
33739;DHT22;20063;51.730;11.110;2022-11-15T16:41:29;12.10;99.90
33739;DHT22;20063;51.730;11.110;2022-11-15T16:43:55;12.10;99.90
33739;DHT22;20063;51.730;11.110;2022-11-15T16:46:26;12.20;99.90
33739;DHT22;20063;51.730;11.110;2022-11-15T16:48:52;12.20;99.90
33739;DHT22;20063;51.730;11.110;2022-11-15T16:51:18;12.20;99.90
33739;DHT22;20063;51.730;11.110;2022-11-15T16:53:44;12.20;99.90
33739;DHT22;20063;51.730;11.110;2022-11-15T16:56:26;12.20;99.90
33739;DHT22;20063;51.730;11.110;2022-11-15T16:58:53;12.20;99.90
33739;DHT22;20063;51.730;11.110;2022-11-15T17:01:24;12.20;99.90
33739;DHT22;20063;51.730;11.110;2022-11-15T17:03:51;12.20;99.90
33739;DHT22;20063;51.730;11.110;2022-11-15T17:06:17;12.20;99.90
33739;DHT22;20063;51.730;11.110;2022-11-15T17:08:44;12.20;99.90
33739;DHT22;20063;51.730;11.110;2022-11-15T17:11:28;12.20;99.90
33739;DHT22;20063;51.730;11.110;2022-11-15T17:13:57;12.20;99.90
33739;DHT22;20063;51.730;11.110;2022-11-15T17:16:23;12.20;99.90
33739;DHT22;20063;51.730;11.110;2022-11-15T17:18:50;12.20;99.90
33739;DHT22;20063;51.730;11.110;2022-11-15T17:21:18;12.20;99.90
33739;DHT22;20063;51.730;11.110;2022-11-15T17:23:45;12.20;99.90
33739;DHT22;20063;51.730;11.110;2022-11-15T17:26:11;12.20;99.90
33739;DHT22;20063;51.730;11.110;2022-11-15T17:28:38;12.30;99.90
33739;DHT22;20063;51.730;11.110;2022-11-15T17:31:11;12.30;99.90
33739;DHT22;20063;51.730;11.110;2022-11-15T17:33:39;12.30;99.90
33739;DHT22;20063;51.730;11.110;2022-11-15T17:36:10;12.20;99.90
33739;DHT22;20063;51.730;11.110;2022-11-15T17:38:36;12.20;99.90
33739;DHT22;20063;51.730;11.110;2022-11-15T17:41:08;12.20;99.90
33739;DHT22;20063;51.730;11.110;2022-11-15T17:43:35;12.20;99.90
33739;DHT22;20063;51.730;11.110;2022-11-15T17:46:04;12.20;99.90
33739;DHT22;20063;51.730;11.110;2022-11-15T17:48:30;12.20;99.90
33739;DHT22;20063;51.730;11.110;2022-11-15T17:50:58;12.20;99.90